createdAt,value
2022-12-26T00:03:19.379Z,6.28
2022-12-26T00:08:21.505Z,6.55
2022-12-26T00:13:39.466Z,6.10
2022-12-26T00:18:42.609Z,5.30
2022-12-26T00:23:45.237Z,5.70
2022-12-26T00:28:46.254Z,5.43
2022-12-26T00:33:47.709Z,5.88
2022-12-26T00:38:50.893Z,5.60
2022-12-26T00:43:52.295Z,5.50
2022-12-26T00:48:53.136Z,5.82
2022-12-26T00:53:55.167Z,6.55
2022-12-26T00:58:55.893Z,5.90
2022-12-26T01:03:58.779Z,6.00
2022-12-26T01:09:00.943Z,7.03
2022-12-26T01:14:01.603Z,6.97
2022-12-26T01:19:02.286Z,6.60
2022-12-26T01:24:04.679Z,5.90
2022-12-26T01:29:05.386Z,5.95
2022-12-26T01:34:06.047Z,6.60
2022-12-26T01:39:08.055Z,6.18
2022-12-26T01:44:47.405Z,6.55
2022-12-26T01:49:51.643Z,6.53
2022-12-26T01:54:55.916Z,7.03
2022-12-26T01:59:58.986Z,6.75
2022-12-26T02:05:17.089Z,6.60
2022-12-26T02:10:25.627Z,6.25
2022-12-26T02:15:26.970Z,6.65
2022-12-26T02:20:30.146Z,7.05
2022-12-26T02:25:51.506Z,5.85
2022-12-26T02:30:58.208Z,6.97
2022-12-26T02:36:15.847Z,6.63
2022-12-26T02:41:26.754Z,7.63
2022-12-26T02:46:51.399Z,6.55
2022-12-26T02:52:18.853Z,6.68
2022-12-26T02:57:42.541Z,6.75
2022-12-26T03:03:08.012Z,6.57
2022-12-26T03:08:31.315Z,7.05
2022-12-26T03:13:37.134Z,6.28
2022-12-26T03:18:57.881Z,6.32
2022-12-26T03:24:00.817Z,6.35
2022-12-26T03:29:18.874Z,6.80
2022-12-26T03:34:21.370Z,6.05
2022-12-26T03:39:54.087Z,6.28
2022-12-26T03:45:19.065Z,5.70
2022-12-26T03:51:02.473Z,5.38
2022-12-26T03:56:26.628Z,5.10
2022-12-26T04:01:48.432Z,5.20
2022-12-26T04:07:11.666Z,5.95
2022-12-26T04:12:36.210Z,5.25
2022-12-26T04:18:06.082Z,5.10
2022-12-26T04:23:32.350Z,5.57
2022-12-26T04:28:50.957Z,5.07
2022-12-26T04:34:12.179Z,5.70
2022-12-26T04:39:35.395Z,5.85
2022-12-26T04:44:37.892Z,5.05
2022-12-26T04:50:01.725Z,4.60
2022-12-26T04:55:03.908Z,2.80
2022-12-26T05:00:06.254Z,1.65
2022-12-26T05:05:25.015Z,1.63
2022-12-26T05:10:28.971Z,1.30
2022-12-26T05:15:49.716Z,1.30
2022-12-26T05:21:07.952Z,1.65
2022-12-26T05:26:33.998Z,1.55
2022-12-26T05:31:36.876Z,1.30
2022-12-26T05:36:40.720Z,1.58
2022-12-26T05:41:42.876Z,1.30
2022-12-26T05:46:43.695Z,1.50
2022-12-26T05:51:44.369Z,1.30
2022-12-26T05:56:49.509Z,1.67
2022-12-26T06:01:50.489Z,1.90
2022-12-26T06:06:52.283Z,1.50
2022-12-26T06:11:54.272Z,2.00
2022-12-26T06:16:55.105Z,1.70
2022-12-26T06:21:55.839Z,1.80
2022-12-26T06:26:57.816Z,2.00
2022-12-26T06:31:58.562Z,1.50
2022-12-26T06:36:59.512Z,1.80
2022-12-26T06:42:01.526Z,1.80
2022-12-26T06:47:03.206Z,1.40
2022-12-26T06:52:03.986Z,1.88
2022-12-26T06:57:06.232Z,1.55
2022-12-26T07:02:07.348Z,1.45
2022-12-26T07:07:08.100Z,2.08
2022-12-26T07:12:10.112Z,1.58
2022-12-26T07:17:11.261Z,1.55
2022-12-26T07:22:11.927Z,1.73
2022-12-26T07:27:13.951Z,1.98
2022-12-26T07:32:14.726Z,1.73
2022-12-26T07:37:15.471Z,1.90
2022-12-26T07:42:17.474Z,1.65
2022-12-26T07:47:18.129Z,1.85
2022-12-26T07:52:19.913Z,1.65
2022-12-26T07:57:47.332Z,2.30
2022-12-26T08:02:42.714Z,1.85
2022-12-26T08:07:43.491Z,1.65
2022-12-26T08:12:45.522Z,2.05
2022-12-26T08:17:46.235Z,1.30
2022-12-26T08:22:46.963Z,2.28
2022-12-26T08:27:49.031Z,1.70
2022-12-26T08:32:51.546Z,1.50
2022-12-26T08:37:52.197Z,1.52
2022-12-26T08:43:12.217Z,1.30
2022-12-26T08:48:16.023Z,1.98
2022-12-26T08:53:16.758Z,1.42
2022-12-26T08:58:18.806Z,1.38
2022-12-26T09:03:20.604Z,1.55
2022-12-26T09:08:21.361Z,1.52
2022-12-26T09:13:23.858Z,1.60
2022-12-26T09:18:24.812Z,1.00
2022-12-26T09:23:25.485Z,1.27
2022-12-26T09:28:27.643Z,1.70
2022-12-26T09:33:28.377Z,1.85
2022-12-26T09:38:30.176Z,1.80
2022-12-26T09:43:54.050Z,1.65
2022-12-26T09:49:00.238Z,1.70
2022-12-26T09:54:04.939Z,1.50
2022-12-26T09:59:14.433Z,1.35
2022-12-26T10:04:28.898Z,1.55
2022-12-26T10:09:51.743Z,1.50
2022-12-26T10:15:00.131Z,2.03
2022-12-26T10:20:13.392Z,1.17
2022-12-26T10:25:19.337Z,1.65
2022-12-26T10:30:24.609Z,1.50
2022-12-26T10:35:32.128Z,1.77
2022-12-26T10:40:41.792Z,1.55
2022-12-26T10:45:50.335Z,1.70
2022-12-26T10:50:51.261Z,1.60
2022-12-26T10:55:52.020Z,2.47
2022-12-26T11:00:54.124Z,1.60
2022-12-26T11:06:07.551Z,1.60
2022-12-26T11:11:14.073Z,1.27
2022-12-26T11:16:26.504Z,1.30
2022-12-26T11:21:29.372Z,1.70
2022-12-26T11:26:30.600Z,1.77
2022-12-26T11:31:33.090Z,1.75
2022-12-26T11:36:34.317Z,1.23
2022-12-26T11:41:39.913Z,1.50
2022-12-26T11:46:47.042Z,1.38
2022-12-26T11:51:54.144Z,1.30
2022-12-26T11:57:11.942Z,1.25
2022-12-26T12:02:29.441Z,1.10
2022-12-26T12:07:41.386Z,1.20
2022-12-26T12:12:48.337Z,1.20
2022-12-26T12:17:59.959Z,1.20
2022-12-26T12:23:21.551Z,1.20
2022-12-26T12:28:52.863Z,1.23
2022-12-26T12:34:03.494Z,1.30
2022-12-26T12:39:13.906Z,1.10
2022-12-26T12:44:23.006Z,1.02
2022-12-26T12:49:38.964Z,1.20
2022-12-26T12:55:19.783Z,1.10
2022-12-26T13:00:23.647Z,1.20
2022-12-26T13:05:39.346Z,1.00
2022-12-26T13:10:49.470Z,1.20
2022-12-26T13:15:55.528Z,0.55
2022-12-26T13:21:01.972Z,0.60
2022-12-26T13:26:10.595Z,0.82
2022-12-26T13:31:11.537Z,0.45
2022-12-26T13:36:38.133Z,0.65
2022-12-26T13:41:58.542Z,1.02
2022-12-26T13:47:00.767Z,0.80
2022-12-26T13:52:32.332Z,0.60
2022-12-26T13:57:40.204Z,1.10
2022-12-26T14:03:19.453Z,0.70
2022-12-26T14:08:33.268Z,1.15
2022-12-26T14:13:52.470Z,1.20
2022-12-26T14:19:01.658Z,0.82
2022-12-26T14:24:18.280Z,1.17
2022-12-26T14:29:26.050Z,1.00
2022-12-26T14:34:40.206Z,1.10
2022-12-26T14:39:58.642Z,1.60
2022-12-26T14:45:01.450Z,1.00
2022-12-26T14:50:35.865Z,1.38
2022-12-26T14:55:52.266Z,1.10
2022-12-26T15:00:54.306Z,1.13
2022-12-26T15:06:02.658Z,1.13
2022-12-26T15:11:52.881Z,1.10
2022-12-26T15:17:16.001Z,1.50
2022-12-26T15:22:46.064Z,1.00
2022-12-26T15:28:23.619Z,1.20
2022-12-26T15:33:32.781Z,1.17
2022-12-26T15:38:41.356Z,1.27
2022-12-26T15:44:02.608Z,1.23
2022-12-26T15:49:32.888Z,1.35
2022-12-26T15:55:03.025Z,1.23
2022-12-26T16:00:13.596Z,1.27
2022-12-26T16:05:34.565Z,1.60
2022-12-26T16:10:36.814Z,1.50
2022-12-26T16:15:46.547Z,1.98
2022-12-26T16:21:09.146Z,1.67
2022-12-26T16:26:18.472Z,1.63
2022-12-26T16:31:22.253Z,1.83
2022-12-26T16:36:26.339Z,2.35
2022-12-26T16:41:29.367Z,2.20
2022-12-26T16:46:31.845Z,2.33
2022-12-26T16:51:41.472Z,2.28
2022-12-26T16:56:42.631Z,2.47
2022-12-26T17:01:47.771Z,2.45
2022-12-26T17:06:53.181Z,2.67
2022-12-26T17:11:57.078Z,2.55
2022-12-26T17:16:59.476Z,2.28
2022-12-26T17:22:21.408Z,1.92
2022-12-26T17:27:24.280Z,2.40
2022-12-26T17:32:34.979Z,2.00
2022-12-26T17:37:37.576Z,1.92
2022-12-26T17:42:45.434Z,2.00
2022-12-26T17:47:46.606Z,2.40
2022-12-26T17:52:49.314Z,1.63
2022-12-26T17:57:50.024Z,1.30
2022-12-26T18:02:50.913Z,1.88
2022-12-26T18:07:53.543Z,1.40
2022-12-26T18:12:54.354Z,1.30
2022-12-26T18:17:55.374Z,1.25
2022-12-26T18:22:58.065Z,1.10
2022-12-26T18:28:00.436Z,1.10
2022-12-26T18:33:01.135Z,1.30
2022-12-26T18:38:03.285Z,1.20
2022-12-26T18:43:05.277Z,0.88
2022-12-26T18:48:07.713Z,1.20
2022-12-26T18:53:09.786Z,1.10
2022-12-26T18:58:11.309Z,1.30
2022-12-26T19:03:12.051Z,1.10
2022-12-26T19:08:14.091Z,0.88
2022-12-26T19:13:15.662Z,0.68
2022-12-26T19:18:16.760Z,1.02
2022-12-26T19:23:18.799Z,0.80
2022-12-26T19:28:19.512Z,0.60
2022-12-26T19:33:20.230Z,0.70
2022-12-26T19:38:22.272Z,0.55
2022-12-26T19:43:22.939Z,0.60
2022-12-26T19:48:23.688Z,0.60
2022-12-26T19:53:25.716Z,0.70
2022-12-26T19:58:30.912Z,0.40
2022-12-26T20:03:31.610Z,0.50
2022-12-26T20:08:33.698Z,0.50
2022-12-26T20:13:35.111Z,0.80
2022-12-26T20:18:36.497Z,0.60
2022-12-26T20:23:38.591Z,0.50
2022-12-26T20:28:40.194Z,0.65
2022-12-26T20:33:43.358Z,0.52
2022-12-26T20:38:46.307Z,0.50
2022-12-26T20:43:48.658Z,0.60
2022-12-26T20:48:49.963Z,0.70
2022-12-26T20:53:52.577Z,1.13
2022-12-26T20:58:53.400Z,0.75
2022-12-26T21:03:55.617Z,1.00
2022-12-26T21:08:58.222Z,0.90
2022-12-26T21:14:01.188Z,1.10
2022-12-26T21:19:02.308Z,1.42
2022-12-26T21:24:07.330Z,1.23
2022-12-26T21:29:09.863Z,1.52
2022-12-26T21:34:13.471Z,1.90
2022-12-26T21:39:15.813Z,1.88
2022-12-26T21:44:16.656Z,1.52
2022-12-26T21:49:17.352Z,1.52
2022-12-26T21:54:40.023Z,1.58
2022-12-26T21:59:58.116Z,1.30
2022-12-26T22:04:59.389Z,1.63
2022-12-26T22:10:01.497Z,1.80
2022-12-26T22:15:02.294Z,1.55
2022-12-26T22:20:02.988Z,1.27
2022-12-26T22:25:05.678Z,1.42
2022-12-26T22:30:07.112Z,1.50
2022-12-26T22:35:13.239Z,1.70
2022-12-26T22:40:18.739Z,1.58
2022-12-26T22:45:19.513Z,1.42
2022-12-26T22:50:20.192Z,2.35
2022-12-26T22:55:22.213Z,1.35
2022-12-26T23:00:22.879Z,2.83
2022-12-26T23:05:24.138Z,1.70
2022-12-26T23:10:27.128Z,1.90
2022-12-26T23:15:29.724Z,1.90
2022-12-26T23:20:53.250Z,2.22
2022-12-26T23:25:55.245Z,1.90
2022-12-26T23:30:57.101Z,1.70
2022-12-26T23:35:58.099Z,1.50
2022-12-26T23:41:00.158Z,1.58
2022-12-26T23:46:01.395Z,1.30
2022-12-26T23:51:03.433Z,2.00
2022-12-26T23:56:08.341Z,1.50
